Time;durP1;ratioP1;P1;durP2;ratioP2;P2;SDS_P1;SDS_P2;PMS_P1;PMS_P2;Temp;Humidity;BMP_temperature;BMP_pressure;BME280_temperature;BME280_humidity;BME280_pressure;Samples;Min_cycle;Max_cycle;Signal;HPM_P1;HPM_P2
2023/01/16 00:01:25;;;;;;;;;;;26.40;99.90;;;;;;5094730;28;20037;-92
2023/01/16 00:03:52;;;;;;;;;;;26.30;99.90;;;;;;5095367;28;20017;-84
2023/01/16 00:06:19;;;;;;;;;;;26.30;99.90;;;;;;5094556;28;20274;-79
2023/01/16 00:08:48;;;;;;;;;;;26.40;99.90;;;;;;5094484;28;19916;-79
2023/01/16 00:11:14;;;;;;;;;;;26.40;99.90;;;;;;5093671;28;19908;-84
2023/01/16 00:13:41;;;;;;;;;;;26.40;99.90;;;;;;5093752;28;19908;-86
2023/01/16 00:16:08;;;;;;;;;;;26.30;99.90;;;;;;5093391;28;19957;-83
2023/01/16 00:18:35;;;;;;;;;;;26.60;99.90;;;;;;5093976;28;19999;-88
2023/01/16 00:21:01;;;;;;;;;;;26.80;99.90;;;;;;5093757;28;20019;-75
2023/01/16 00:23:28;;;;;;;;;;;26.80;99.90;;;;;;5095680;28;19908;-76
2023/01/16 00:25:55;;;;;;;;;;;26.80;99.90;;;;;;5097231;28;19908;-87
2023/01/16 00:28:21;;;;;;;;;;;26.80;99.90;;;;;;5097932;28;19908;-80
2023/01/16 00:30:48;;;;;;;;;;;26.90;99.90;;;;;;5097611;28;19919;-85
2023/01/16 00:33:16;;;;;;;;;;;27.00;99.90;;;;;;5097721;28;20303;-71
2023/01/16 00:35:42;;;;;;;;;;;27.00;99.90;;;;;;5097096;28;19957;-88
2023/01/16 00:38:09;;;;;;;;;;;26.90;99.90;;;;;;5096794;28;20341;-89
2023/01/16 00:40:36;;;;;;;;;;;26.90;99.90;;;;;;5096740;28;19970;-80
2023/01/16 00:43:02;;;;;;;;;;;27.30;99.90;;;;;;5097575;28;19971;-90
2023/01/16 00:45:29;;;;;;;;;;;27.20;99.90;;;;;;5096294;28;19908;-76
2023/01/16 00:47:56;;;;;;;;;;;27.30;99.90;;;;;;5096173;28;19908;-88
2023/01/16 00:50:22;;;;;;;;;;;27.40;99.90;;;;;;5096401;28;19912;-72
2023/01/16 00:52:49;;;;;;;;;;;27.50;99.90;;;;;;5096192;28;20270;-84
2023/01/16 00:55:16;;;;;;;;;;;27.70;99.90;;;;;;5096261;28;19915;-78
2023/01/16 00:57:42;;;;;;;;;;;27.50;99.90;;;;;;5095609;28;19912;-81
2023/01/16 01:00:09;;;;;;;;;;;27.40;99.90;;;;;;5095643;28;19980;-82
2023/01/16 01:02:36;;;;;;;;;;;27.80;99.90;;;;;;5096392;28;19909;-85
2023/01/16 01:05:03;;;;;;;;;;;27.90;99.90;;;;;;5096491;28;19912;-85
2023/01/16 01:07:29;;;;;;;;;;;28.00;99.90;;;;;;5096315;28;19915;-76
2023/01/16 01:09:56;;;;;;;;;;;28.30;99.90;;;;;;5096452;28;19908;-87
2023/01/16 01:12:23;;;;;;;;;;;28.40;99.90;;;;;;5096289;28;19916;-81
2023/01/16 01:14:49;;;;;;;;;;;28.20;99.90;;;;;;5096651;28;19908;-89
2023/01/16 01:17:16;;;;;;;;;;;28.30;99.90;;;;;;5096070;28;20268;-78
2023/01/16 01:19:43;;;;;;;;;;;28.10;99.90;;;;;;5096677;28;20263;-78
2023/01/16 01:22:09;;;;;;;;;;;28.00;99.90;;;;;;5096370;28;19908;-90
2023/01/16 01:24:36;;;;;;;;;;;28.00;99.90;;;;;;5096604;28;19912;-87
2023/01/16 01:27:03;;;;;;;;;;;27.90;99.90;;;;;;5096072;28;20000;-84
2023/01/16 01:29:29;;;;;;;;;;;28.00;99.90;;;;;;5096543;28;20280;-78
2023/01/16 01:31:56;;;;;;;;;;;28.20;99.90;;;;;;5096724;28;19909;-90
2023/01/16 01:34:23;;;;;;;;;;;27.90;99.90;;;;;;5096341;28;19912;-79
2023/01/16 01:36:49;;;;;;;;;;;27.70;99.90;;;;;;5096190;28;19947;-85
2023/01/16 01:39:16;;;;;;;;;;;27.50;99.90;;;;;;5096736;28;19922;-87
2023/01/16 01:41:43;;;;;;;;;;;27.20;99.90;;;;;;5096099;28;19947;-79
2023/01/16 01:44:28;;;;;;;;;;;27.10;99.90;;;;;;5096224;28;20374;-84
2023/01/16 01:46:54;;;;;;;;;;;26.80;99.90;;;;;;5096054;28;20244;-88
2023/01/16 01:49:27;;;;;;;;;;;26.70;99.90;;;;;;5096338;28;19952;-81
2023/01/16 01:51:55;;;;;;;;;;;26.70;99.90;;;;;;5096654;28;19915;-91
2023/01/16 01:54:23;;;;;;;;;;;26.80;99.90;;;;;;5096563;28;19915;-81
2023/01/16 01:56:55;;;;;;;;;;;26.90;99.90;;;;;;5096277;28;20350;-84
2023/01/16 01:59:25;;;;;;;;;;;27.00;99.90;;;;;;5095971;28;19926;-77
2023/01/16 02:01:53;;;;;;;;;;;26.90;99.90;;;;;;5096490;28;19916;-82
2023/01/16 02:04:22;;;;;;;;;;;27.10;99.90;;;;;;5096395;28;19986;-80
2023/01/16 02:07:00;;;;;;;;;;;27.00;99.90;;;;;;5096443;28;19915;-93
2023/01/16 02:09:27;;;;;;;;;;;26.80;99.90;;;;;;5095601;28;19961;-91
2023/01/16 02:11:54;;;;;;;;;;;26.70;99.90;;;;;;5096302;28;19916;-85
2023/01/16 02:14:22;;;;;;;;;;;26.80;99.90;;;;;;5095764;28;19952;-74
2023/01/16 02:19:54;;;;;;;;;;;27.10;99.90;;;;;;5095687;28;19996;-71
2023/01/16 02:22:39;;;;;;;;;;;27.00;99.90;;;;;;5096181;28;20006;-88
2023/01/16 02:25:05;;;;;;;;;;;27.20;99.90;;;;;;5096034;28;19908;-78
2023/01/16 02:27:35;;;;;;;;;;;27.10;99.90;;;;;;5095357;28;20267;-82
2023/01/16 02:30:04;;;;;;;;;;;26.80;99.90;;;;;;5095811;28;20289;-85
2023/01/16 02:32:51;;;;;;;;;;;26.70;99.90;;;;;;5095567;28;19916;-78
2023/01/16 02:35:32;;;;;;;;;;;26.80;99.90;;;;;;5095928;28;20349;-78
2023/01/16 02:38:09;;;;;;;;;;;26.80;99.90;;;;;;5095403;28;19916;-85
2023/01/16 02:40:36;;;;;;;;;;;26.90;99.90;;;;;;5095584;28;19916;-76
2023/01/16 02:43:41;;;;;;;;;;;26.90;99.90;;;;;;5095406;28;20425;-87
2023/01/16 02:46:19;;;;;;;;;;;27.00;99.90;;;;;;5072205;28;19990;-75
2023/01/16 02:48:46;;;;;;;;;;;27.10;99.90;;;;;;5072668;28;20383;-89
2023/01/16 02:51:19;;;;;;;;;;;26.90;99.90;;;;;;5084520;28;19912;-85
2023/01/16 02:54:06;;;;;;;;;;;27.00;99.90;;;;;;5095299;28;19915;-89
2023/01/16 02:56:41;;;;;;;;;;;27.00;99.90;;;;;;5094421;28;19912;-86
2023/01/16 02:59:11;;;;;;;;;;;27.00;99.90;;;;;;5095038;28;19931;-89
2023/01/16 03:01:40;;;;;;;;;;;27.00;99.90;;;;;;5095151;28;19939;-84
2023/01/16 03:04:25;;;;;;;;;;;26.90;99.90;;;;;;5095581;28;20001;-78
2023/01/16 03:06:59;;;;;;;;;;;27.10;99.90;;;;;;5094738;28;19919;-88
2023/01/16 03:09:32;;;;;;;;;;;27.10;99.90;;;;;;5094673;28;19915;-91
2023/01/16 03:12:05;;;;;;;;;;;27.00;99.90;;;;;;5094500;28;20023;-85
2023/01/16 03:14:43;;;;;;;;;;;27.00;99.90;;;;;;5095610;28;19915;-85
2023/01/16 03:17:28;;;;;;;;;;;27.00;99.90;;;;;;5093587;28;19916;-84
2023/01/16 03:20:03;;;;;;;;;;;26.80;99.90;;;;;;5094249;28;19912;-84
2023/01/16 03:22:30;;;;;;;;;;;26.80;99.90;;;;;;5093890;28;19908;-80
2023/01/16 03:25:23;;;;;;;;;;;26.70;99.90;;;;;;5094251;28;20371;-82
2023/01/16 03:27:49;;;;;;;;;;;26.80;99.90;;;;;;5092857;28;19916;-88
2023/01/16 03:30:29;;;;;;;;;;;26.80;99.90;;;;;;5094222;28;20220;-83
2023/01/16 03:33:05;;;;;;;;;;;26.70;99.90;;;;;;5093618;28;19930;-90
2023/01/16 03:35:34;;;;;;;;;;;26.70;99.90;;;;;;5093700;28;19914;-79
2023/01/16 03:38:06;;;;;;;;;;;26.70;99.90;;;;;;5093709;28;19931;-94
2023/01/16 03:40:34;;;;;;;;;;;26.80;99.90;;;;;;5093430;28;19916;-83
2023/01/16 03:43:19;;;;;;;;;;;26.70;99.90;;;;;;5093644;28;20381;-86
2023/01/16 03:45:55;;;;;;;;;;;26.70;99.90;;;;;;5092831;28;19908;-88
2023/01/16 03:48:40;;;;;;;;;;;26.80;99.90;;;;;;5092124;28;19958;-87
2023/01/16 03:51:07;;;;;;;;;;;27.00;99.90;;;;;;5093021;28;19923;-80
2023/01/16 03:53:36;;;;;;;;;;;27.40;99.90;;;;;;5092645;28;20278;-79
2023/01/16 03:56:27;;;;;;;;;;;27.30;99.90;;;;;;5092334;28;19912;-83
2023/01/16 03:58:54;;;;;;;;;;;27.00;99.90;;;;;;5095100;28;20454;-83
2023/01/16 04:01:21;;;;;;;;;;;26.70;99.90;;;;;;5096779;28;19946;-78
2023/01/16 04:03:54;;;;;;;;;;;26.80;99.90;;;;;;5095332;28;19911;-83
2023/01/16 04:06:26;;;;;;;;;;;26.70;99.90;;;;;;5096353;28;19915;-78
2023/01/16 04:08:53;;;;;;;;;;;26.40;99.90;;;;;;5096545;28;19919;-78
2023/01/16 04:11:20;;;;;;;;;;;26.40;99.90;;;;;;5096471;28;20301;-77
2023/01/16 04:13:49;;;;;;;;;;;26.50;99.90;;;;;;5096349;28;20037;-79
2023/01/16 04:16:17;;;;;;;;;;;26.40;99.90;;;;;;5096040;28;19908;-75
2023/01/16 04:18:45;;;;;;;;;;;26.30;99.90;;;;;;5096522;28;19915;-87
2023/01/16 04:21:12;;;;;;;;;;;26.40;99.90;;;;;;5096638;28;19923;-87
2023/01/16 04:23:38;;;;;;;;;;;26.40;99.90;;;;;;5096371;28;20359;-83
2023/01/16 04:26:05;;;;;;;;;;;26.70;99.90;;;;;;5095731;28;19918;-85
2023/01/16 04:28:32;;;;;;;;;;;26.60;99.90;;;;;;5096173;28;19934;-83
2023/01/16 04:30:58;;;;;;;;;;;26.40;99.90;;;;;;5096308;28;19909;-79
2023/01/16 04:33:25;;;;;;;;;;;26.30;99.90;;;;;;5095936;28;19944;-83
2023/01/16 04:35:52;;;;;;;;;;;26.20;99.90;;;;;;5095782;28;19908;-80
2023/01/16 04:38:18;;;;;;;;;;;26.20;99.90;;;;;;5096485;28;20305;-82
2023/01/16 04:40:45;;;;;;;;;;;26.10;99.90;;;;;;5095855;28;20339;-86
2023/01/16 04:43:12;;;;;;;;;;;26.20;99.90;;;;;;5096147;28;19943;-84
2023/01/16 04:45:40;;;;;;;;;;;26.20;99.90;;;;;;5095526;28;20259;-78
2023/01/16 04:48:07;;;;;;;;;;;26.20;99.90;;;;;;5095911;28;20354;-86
2023/01/16 04:50:33;;;;;;;;;;;26.20;99.90;;;;;;5095966;28;19916;-87
2023/01/16 04:53:00;;;;;;;;;;;26.30;99.90;;;;;;5095632;28;20002;-86
2023/01/16 04:55:27;;;;;;;;;;;26.20;99.90;;;;;;5095195;28;20012;-85
2023/01/16 04:57:53;;;;;;;;;;;26.30;99.90;;;;;;5095526;28;19943;-83
2023/01/16 05:00:20;;;;;;;;;;;26.30;99.90;;;;;;5095792;28;19916;-87
2023/01/16 05:02:47;;;;;;;;;;;26.60;99.90;;;;;;5095683;28;19943;-78
2023/01/16 05:05:13;;;;;;;;;;;26.60;99.90;;;;;;5095270;28;20452;-85
2023/01/16 05:07:40;;;;;;;;;;;26.50;99.90;;;;;;5095619;28;20006;-83
2023/01/16 05:10:07;;;;;;;;;;;26.60;99.90;;;;;;5094886;28;19951;-87
2023/01/16 05:12:33;;;;;;;;;;;26.90;99.90;;;;;;5095213;28;20474;-76
2023/01/16 05:15:00;;;;;;;;;;;26.80;99.90;;;;;;5095362;28;20420;-79
2023/01/16 05:17:27;;;;;;;;;;;26.50;99.90;;;;;;5094534;28;19950;-79
2023/01/16 05:19:53;;;;;;;;;;;26.50;99.90;;;;;;5095038;28;19917;-82
2023/01/16 05:22:20;;;;;;;;;;;26.50;99.90;;;;;;5096692;28;19934;-81
2023/01/16 05:24:47;;;;;;;;;;;26.30;99.90;;;;;;5095412;28;19912;-85
2023/01/16 05:27:13;;;;;;;;;;;26.30;99.90;;;;;;5097548;28;19908;-89
2023/01/16 05:29:40;;;;;;;;;;;26.30;99.90;;;;;;5095541;28;20310;-91
2023/01/16 05:32:07;;;;;;;;;;;26.30;99.90;;;;;;5095411;28;20000;-84
2023/01/16 05:34:33;;;;;;;;;;;26.30;99.90;;;;;;5095408;28;19908;-87
2023/01/16 05:37:00;;;;;;;;;;;26.20;99.90;;;;;;5094691;28;19916;-85
2023/01/16 05:39:27;;;;;;;;;;;26.20;99.90;;;;;;5094743;28;19912;-91
2023/01/16 05:41:53;;;;;;;;;;;26.00;99.90;;;;;;5094990;28;19919;-79
2023/01/16 05:44:20;;;;;;;;;;;26.00;99.90;;;;;;5095068;28;19915;-83
2023/01/16 05:46:46;;;;;;;;;;;26.00;99.90;;;;;;5095104;28;20313;-77
2023/01/16 05:49:13;;;;;;;;;;;26.00;99.90;;;;;;5101721;28;19912;-93
2023/01/16 05:51:46;;;;;;;;;;;26.00;99.90;;;;;;5105227;28;19979;-94
2023/01/16 05:54:13;;;;;;;;;;;26.00;99.90;;;;;;5100844;28;19920;-91
2023/01/16 05:56:39;;;;;;;;;;;25.90;99.90;;;;;;5100498;28;20014;-77
2023/01/16 05:59:06;;;;;;;;;;;25.90;99.90;;;;;;5098359;28;19924;-78
2023/01/16 06:01:33;;;;;;;;;;;25.90;99.90;;;;;;5097216;28;19916;-83
2023/01/16 06:03:59;;;;;;;;;;;25.80;99.90;;;;;;5097390;28;19908;-91
2023/01/16 06:06:26;;;;;;;;;;;25.70;99.90;;;;;;5099048;28;19931;-80
2023/01/16 06:08:53;;;;;;;;;;;25.70;99.90;;;;;;5097723;28;19990;-94
2023/01/16 06:11:19;;;;;;;;;;;25.70;99.90;;;;;;5097814;28;20282;-91
2023/01/16 06:13:47;;;;;;;;;;;25.80;99.90;;;;;;5097373;28;19908;-76
2023/01/16 06:16:13;;;;;;;;;;;25.80;99.90;;;;;;5093811;28;19915;-69
2023/01/16 06:18:40;;;;;;;;;;;25.70;99.90;;;;;;5093845;28;20287;-78
2023/01/16 06:21:07;;;;;;;;;;;25.80;99.90;;;;;;5092468;28;19916;-67
2023/01/16 06:23:33;;;;;;;;;;;25.70;99.90;;;;;;5093801;28;19912;-74
2023/01/16 06:26:02;;;;;;;;;;;25.60;99.90;;;;;;5094369;28;20322;-78
2023/01/16 06:28:29;;;;;;;;;;;25.50;99.90;;;;;;5094236;28;19954;-73
2023/01/16 06:30:56;;;;;;;;;;;25.50;99.90;;;;;;5093746;28;20003;-85
2023/01/16 06:33:22;;;;;;;;;;;25.60;99.90;;;;;;5095601;28;19908;-79
2023/01/16 06:35:49;;;;;;;;;;;25.60;99.90;;;;;;5096420;28;19908;-80
2023/01/16 06:38:15;;;;;;;;;;;25.50;99.90;;;;;;5094799;28;19912;-70
2023/01/16 06:40:44;;;;;;;;;;;25.40;99.90;;;;;;5092235;28;20015;-69
2023/01/16 06:43:11;;;;;;;;;;;25.40;99.90;;;;;;5096924;28;19915;-67
2023/01/16 06:45:38;;;;;;;;;;;25.50;99.90;;;;;;5096667;28;20369;-71
2023/01/16 06:48:04;;;;;;;;;;;25.50;99.90;;;;;;5096779;28;19913;-72
2023/01/16 06:50:31;;;;;;;;;;;25.40;99.90;;;;;;5096405;28;20001;-70
2023/01/16 06:52:57;;;;;;;;;;;25.30;99.90;;;;;;5095193;28;19909;-68
2023/01/16 06:55:24;;;;;;;;;;;25.30;99.90;;;;;;5093141;28;19908;-77
2023/01/16 06:57:51;;;;;;;;;;;25.30;99.90;;;;;;5093454;28;20354;-71
2023/01/16 07:00:21;;;;;;;;;;;25.30;99.90;;;;;;5094369;28;19923;-88
2023/01/16 07:02:54;;;;;;;;;;;25.30;99.90;;;;;;5095047;28;20004;-90
2023/01/16 07:05:23;;;;;;;;;;;25.30;99.90;;;;;;5094417;28;19908;-90
2023/01/16 07:07:50;;;;;;;;;;;25.20;99.90;;;;;;5094652;28;19912;-71
2023/01/16 07:10:17;;;;;;;;;;;25.20;99.90;;;;;;5098451;28;19918;-75
2023/01/16 07:12:44;;;;;;;;;;;25.10;99.90;;;;;;5100681;28;19996;-85
2023/01/16 07:23:30;;;;;;;;;;;25.00;99.90;;;;;;5098169;28;19917;-73
2023/01/16 07:25:59;;;;;;;;;;;25.10;99.90;;;;;;5100210;28;19919;-67
2023/01/16 07:28:26;;;;;;;;;;;25.10;99.90;;;;;;5106548;28;20373;-68
2023/01/16 07:30:52;;;;;;;;;;;25.10;99.90;;;;;;5103329;28;19911;-83
2023/01/16 07:33:20;;;;;;;;;;;25.10;99.90;;;;;;5103238;28;19908;-94
2023/01/16 07:35:47;;;;;;;;;;;25.00;99.90;;;;;;5101614;28;19924;-85
2023/01/16 07:38:14;;;;;;;;;;;25.00;99.90;;;;;;5089168;28;19916;-86
2023/01/16 07:40:40;;;;;;;;;;;25.00;99.90;;;;;;5091838;28;19930;-88
2023/01/16 07:43:07;;;;;;;;;;;25.00;99.90;;;;;;5093593;28;20357;-76
2023/01/16 07:45:34;;;;;;;;;;;25.00;99.90;;;;;;5091091;28;19935;-83
2023/01/16 07:48:00;;;;;;;;;;;24.90;99.90;;;;;;5089644;28;19920;-79
2023/01/16 07:50:27;;;;;;;;;;;24.90;99.90;;;;;;5088953;28;19912;-77
2023/01/16 07:52:54;;;;;;;;;;;24.90;99.90;;;;;;5089176;28;19915;-82
2023/01/16 07:55:21;;;;;;;;;;;25.00;99.90;;;;;;5089341;28;19920;-85
2023/01/16 07:57:47;;;;;;;;;;;25.00;99.90;;;;;;5090817;28;20036;-77
2023/01/16 08:00:14;;;;;;;;;;;24.80;99.90;;;;;;5089661;28;19920;-87
2023/01/16 08:02:42;;;;;;;;;;;24.70;99.90;;;;;;5089998;28;19912;-90
2023/01/16 08:05:09;;;;;;;;;;;24.60;99.90;;;;;;5090174;28;20376;-88
2023/01/16 08:07:36;;;;;;;;;;;24.60;99.90;;;;;;5091069;28;19912;-82
2023/01/16 08:10:03;;;;;;;;;;;24.50;99.90;;;;;;5093856;28;19916;-88
2023/01/16 08:12:31;;;;;;;;;;;24.50;99.90;;;;;;5095631;28;19964;-85
2023/01/16 08:14:58;;;;;;;;;;;24.50;99.90;;;;;;5106354;28;19968;-80
2023/01/16 08:17:25;;;;;;;;;;;24.50;99.90;;;;;;5091001;28;20400;-71
2023/01/16 08:19:51;;;;;;;;;;;24.40;99.90;;;;;;5089722;28;19927;-77
2023/01/16 08:22:18;;;;;;;;;;;24.40;99.90;;;;;;5089585;28;19947;-76
2023/01/16 08:24:45;;;;;;;;;;;24.30;99.90;;;;;;5088560;28;20390;-85
2023/01/16 08:27:13;;;;;;;;;;;24.30;99.90;;;;;;5088916;28;20378;-73
2023/01/16 08:29:42;;;;;;;;;;;24.30;99.90;;;;;;5089634;28;19919;-74
2023/01/16 08:32:09;;;;;;;;;;;24.30;99.90;;;;;;5090486;28;19919;-79
2023/01/16 08:34:36;;;;;;;;;;;24.20;99.90;;;;;;5088786;28;19912;-78
2023/01/16 08:37:04;;;;;;;;;;;24.20;99.90;;;;;;5088545;28;19935;-68
2023/01/16 08:39:30;;;;;;;;;;;24.20;99.90;;;;;;5092323;28;19920;-74
2023/01/16 08:53:01;;;;;;;;;;;24.20;99.90;;;;;;5094473;28;20278;-68
2023/01/16 08:55:29;;;;;;;;;;;24.10;99.90;;;;;;5088525;28;20522;-66
2023/01/16 08:57:58;;;;;;;;;;;24.00;99.90;;;;;;5090323;28;19912;-83
2023/01/16 09:00:28;;;;;;;;;;;24.00;99.90;;;;;;5089800;28;19930;-79
2023/01/16 09:02:58;;;;;;;;;;;24.00;99.90;;;;;;5088677;28;19965;-72
2023/01/16 09:05:25;;;;;;;;;;;24.00;99.90;;;;;;5088587;28;19919;-85
2023/01/16 09:07:51;;;;;;;;;;;24.00;99.90;;;;;;5087941;28;19919;-89
2023/01/16 09:10:18;;;;;;;;;;;23.90;99.90;;;;;;5095114;28;19940;-86
2023/01/16 09:15:29;;;;;;;;;;;23.90;99.90;;;;;;5096684;28;20011;-86
2023/01/16 09:17:56;;;;;;;;;;;24.00;99.90;;;;;;5100946;28;19934;-88
2023/01/16 09:20:22;;;;;;;;;;;23.90;99.90;;;;;;5098037;28;20279;-90
2023/01/16 09:22:56;;;;;;;;;;;23.90;99.90;;;;;;5097932;28;19995;-84
2023/01/16 09:25:22;;;;;;;;;;;23.90;99.90;;;;;;5098026;28;20138;-80
2023/01/16 09:27:49;;;;;;;;;;;23.80;99.90;;;;;;5096405;28;19908;-85
2023/01/16 09:30:16;;;;;;;;;;;23.80;99.90;;;;;;5094494;28;19908;-90
2023/01/16 09:32:44;;;;;;;;;;;23.80;99.90;;;;;;5094904;28;20360;-87
2023/01/16 09:35:11;;;;;;;;;;;23.80;99.90;;;;;;5098043;28;20045;-80
2023/01/16 09:37:40;;;;;;;;;;;23.80;99.90;;;;;;5087152;28;20083;-80
2023/01/16 09:40:10;;;;;;;;;;;23.70;99.90;;;;;;5120392;27;19924;-82
2023/01/16 09:45:35;;;;;;;;;;;23.80;99.90;;;;;;5087496;28;20477;-85
2023/01/16 09:48:11;;;;;;;;;;;23.80;99.90;;;;;;5087677;28;19912;-87
2023/01/16 09:50:58;;;;;;;;;;;23.80;99.90;;;;;;5088070;28;19934;-82
2023/01/16 09:59:37;;;;;;;;;;;23.70;99.90;;;;;;5044575;28;19925;-87
2023/01/16 10:02:17;;;;;;;;;;;23.70;99.90;;;;;;5044301;28;20398;-87
2023/01/16 10:04:45;;;;;;;;;;;23.70;99.90;;;;;;5069650;28;19989;-84
2023/01/16 10:07:30;;;;;;;;;;;23.70;99.90;;;;;;5087675;28;19916;-76
2023/01/16 10:10:00;;;;;;;;;;;23.70;99.90;;;;;;5102869;28;19912;-79
2023/01/16 10:12:30;;;;;;;;;;;23.70;99.90;;;;;;5110351;28;20306;-76
2023/01/16 10:14:57;;;;;;;;;;;23.70;99.90;;;;;;5105068;28;19908;-71
2023/01/16 10:17:30;;;;;;;;;;;23.70;99.90;;;;;;5102253;28;19918;-82
2023/01/16 10:20:13;;;;;;;;;;;23.60;99.90;;;;;;5093342;28;19919;-90
2023/01/16 10:22:40;;;;;;;;;;;23.60;99.90;;;;;;5089980;28;19912;-73
2023/01/16 10:25:15;;;;;;;;;;;23.60;99.90;;;;;;5090795;28;19999;-89
2023/01/16 10:27:50;;;;;;;;;;;23.60;99.90;;;;;;5088631;28;19912;-89
2023/01/16 10:30:29;;;;;;;;;;;23.60;99.90;;;;;;5087408;28;20546;-71
2023/01/16 10:33:02;;;;;;;;;;;23.60;99.90;;;;;;5090123;28;20004;-74
2023/01/16 10:35:34;;;;;;;;;;;23.60;99.90;;;;;;5093023;28;19967;-93
2023/01/16 10:38:22;;;;;;;;;;;23.50;99.90;;;;;;5092130;28;20573;-72
2023/01/16 10:40:53;;;;;;;;;;;23.50;99.90;;;;;;5087543;28;20426;-74
2023/01/16 10:51:45;;;;;;;;;;;23.50;99.90;;;;;;5086625;28;19934;-74
2023/01/16 10:54:15;;;;;;;;;;;23.50;99.90;;;;;;5086209;28;19912;-66
2023/01/16 10:56:42;;;;;;;;;;;23.50;99.90;;;;;;5086535;28;19927;-66
2023/01/16 10:59:14;;;;;;;;;;;23.60;99.90;;;;;;5087380;28;19924;-71
2023/01/16 11:01:41;;;;;;;;;;;23.50;99.90;;;;;;5087829;28;19924;-66
2023/01/16 11:04:12;;;;;;;;;;;23.60;99.90;;;;;;5086382;28;20289;-66
2023/01/16 11:06:41;;;;;;;;;;;23.60;99.90;;;;;;5085014;28;20695;-70
2023/01/16 11:09:08;;;;;;;;;;;23.60;99.90;;;;;;5085807;28;19919;-66
2023/01/16 11:19:59;;;;;;;;;;;23.50;99.90;;;;;;5085635;28;19946;-66
2023/01/16 11:22:27;;;;;;;;;;;23.50;99.90;;;;;;5085818;28;19918;-67
2023/01/16 11:25:00;;;;;;;;;;;23.50;99.90;;;;;;5085325;28;19919;-73
2023/01/16 11:27:31;;;;;;;;;;;23.50;99.90;;;;;;5117587;28;19958;-64
2023/01/16 11:29:58;;;;;;;;;;;23.50;99.90;;;;;;5092745;28;19977;-65
2023/01/16 11:32:28;;;;;;;;;;;23.50;99.90;;;;;;5101749;28;20412;-87
2023/01/16 11:34:57;;;;;;;;;;;23.50;99.90;;;;;;5094813;28;19908;-70
2023/01/16 11:37:27;;;;;;;;;;;23.50;99.90;;;;;;5093400;28;19908;-85
2023/01/16 11:39:58;;;;;;;;;;;23.50;99.90;;;;;;5093610;28;20039;-68
2023/01/16 11:48:22;;;;;;;;;;;23.40;99.90;;;;;;5093957;28;20274;-66
2023/01/16 11:50:53;;;;;;;;;;;23.40;99.90;;;;;;5094254;28;19908;-67
2023/01/16 11:53:20;;;;;;;;;;;23.40;99.90;;;;;;5093211;28;20278;-65
2023/01/16 11:56:11;;;;;;;;;;;23.40;99.90;;;;;;5126052;28;19908;-66
2023/01/16 11:58:55;;;;;;;;;;;23.40;99.90;;;;;;5093364;28;20010;-66
2023/01/16 12:02:15;;;;;;;;;;;23.40;99.90;;;;;;5093251;28;20011;-66
2023/01/16 12:04:24;;;;;;;;;;;23.40;99.90;;;;;;5094302;28;19908;-69
2023/01/16 12:07:14;;;;;;;;;;;23.40;99.90;;;;;;5092994;28;20007;-67
2023/01/16 12:09:44;;;;;;;;;;;23.30;99.90;;;;;;5093283;28;19908;-67
2023/01/16 12:15:10;;;;;;;;;;;23.40;99.90;;;;;;5093499;28;19945;-66
2023/01/16 12:17:42;;;;;;;;;;;23.40;99.90;;;;;;5093202;28;19957;-66
2023/01/16 12:20:34;;;;;;;;;;;23.30;99.90;;;;;;5095983;28;20282;-66
2023/01/16 12:23:12;;;;;;;;;;;23.30;99.90;;;;;;5096941;28;19912;-66
2023/01/16 12:26:14;;;;;;;;;;;23.30;99.90;;;;;;5096644;28;19908;-66
2023/01/16 12:28:43;;;;;;;;;;;23.30;99.90;;;;;;5074461;28;20000;-69
2023/01/16 12:34:17;;;;;;;;;;;23.30;99.90;;;;;;5076393;28;20271;-66
2023/01/16 12:36:44;;;;;;;;;;;23.30;99.90;;;;;;5096919;28;20468;-67
2023/01/16 12:39:33;;;;;;;;;;;23.30;99.90;;;;;;5098552;28;19908;-70
2023/01/16 12:45:20;;;;;;;;;;;23.30;99.90;;;;;;5103072;28;20395;-86
2023/01/16 12:47:47;;;;;;;;;;;23.30;99.90;;;;;;5100450;28;20326;-81
2023/01/16 12:50:30;;;;;;;;;;;23.30;99.90;;;;;;5114275;28;19947;-68
2023/01/16 12:53:03;;;;;;;;;;;23.30;99.90;;;;;;5098452;28;19909;-70
2023/01/16 12:55:48;;;;;;;;;;;23.30;99.90;;;;;;5078045;28;19908;-86
2023/01/16 12:58:16;;;;;;;;;;;23.40;99.90;;;;;;5077793;28;20069;-80
2023/01/16 13:01:04;;;;;;;;;;;23.30;99.90;;;;;;5077581;28;20019;-91
2023/01/16 13:03:39;;;;;;;;;;;23.30;99.90;;;;;;5077470;28;19912;-82
2023/01/16 13:06:10;;;;;;;;;;;23.30;99.90;;;;;;5076780;28;19915;-78
2023/01/16 13:08:41;;;;;;;;;;;23.30;99.90;;;;;;5078863;28;19946;-74
2023/01/16 13:14:10;;;;;;;;;;;23.30;99.90;;;;;;5076917;28;19959;-88
2023/01/16 13:16:37;;;;;;;;;;;23.30;99.90;;;;;;5076344;28;19908;-72
2023/01/16 13:19:06;;;;;;;;;;;23.30;99.90;;;;;;5077210;28;19920;-80
2023/01/16 13:21:36;;;;;;;;;;;23.30;99.90;;;;;;5076124;28;19944;-71
2023/01/16 13:24:12;;;;;;;;;;;23.30;99.90;;;;;;5076124;28;20011;-91
2023/01/16 13:26:39;;;;;;;;;;;23.20;99.90;;;;;;5077144;28;20381;-89
2023/01/16 13:29:35;;;;;;;;;;;23.10;99.90;;;;;;5076900;28;20251;-86
2023/01/16 13:32:08;;;;;;;;;;;23.10;99.90;;;;;;5069720;28;19909;-82
2023/01/16 13:34:41;;;;;;;;;;;23.00;99.90;;;;;;5076801;28;19908;-84
2023/01/16 13:37:23;;;;;;;;;;;23.00;99.90;;;;;;5076904;28;19995;-90
2023/01/16 13:39:50;;;;;;;;;;;23.00;99.90;;;;;;5077065;28;20290;-89
2023/01/16 13:42:17;;;;;;;;;;;23.10;99.90;;;;;;5076588;28;19908;-82
2023/01/16 13:47:34;;;;;;;;;;;23.20;99.90;;;;;;5077287;28;20279;-84
2023/01/16 13:50:20;;;;;;;;;;;23.20;99.90;;;;;;5077344;28;19915;-83
2023/01/16 13:52:47;;;;;;;;;;;23.20;99.90;;;;;;5084021;28;20050;-85
2023/01/16 13:55:31;;;;;;;;;;;23.20;99.90;;;;;;5096769;28;19912;-89
2023/01/16 13:58:16;;;;;;;;;;;23.20;99.90;;;;;;5096860;28;19924;-88
2023/01/16 14:00:43;;;;;;;;;;;23.10;99.90;;;;;;5097257;28;19920;-86
2023/01/16 14:03:22;;;;;;;;;;;23.10;99.90;;;;;;5096950;28;19908;-91
2023/01/16 14:05:50;;;;;;;;;;;23.10;99.90;;;;;;5096458;28;19912;-87
2023/01/16 14:11:16;;;;;;;;;;;22.90;99.90;;;;;;5111099;28;19965;-70
2023/01/16 14:13:43;;;;;;;;;;;22.90;99.90;;;;;;5111990;28;19987;-83
2023/01/16 14:19:15;;;;;;;;;;;22.80;99.90;;;;;;5073551;28;19909;-73
2023/01/16 14:24:51;;;;;;;;;;;22.80;99.90;;;;;;5074819;28;19913;-84
2023/01/16 14:27:32;;;;;;;;;;;22.80;99.90;;;;;;5074522;28;19974;-92
2023/01/16 14:30:04;;;;;;;;;;;22.70;99.90;;;;;;5088079;28;19915;-89
2023/01/16 14:32:31;;;;;;;;;;;22.60;99.90;;;;;;5097085;28;19908;-84
2023/01/16 14:35:10;;;;;;;;;;;22.60;99.90;;;;;;5097383;28;19908;-87
2023/01/16 14:37:42;;;;;;;;;;;22.60;99.90;;;;;;5129767;27;19912;-86
2023/01/16 14:40:09;;;;;;;;;;;22.60;99.90;;;;;;5098052;28;20399;-85
2023/01/16 14:56:59;;;;;;;;;;;22.70;99.90;;;;;;5096666;28;19943;-89
2023/01/16 14:59:28;;;;;;;;;;;22.60;99.90;;;;;;5128981;27;20382;-93
2023/01/16 15:02:19;;;;;;;;;;;22.60;99.90;;;;;;5095778;28;20219;-86
2023/01/16 15:04:56;;;;;;;;;;;22.50;99.90;;;;;;5097713;28;19912;-94
2023/01/16 15:07:37;;;;;;;;;;;22.60;99.90;;;;;;5097112;28;19915;-93
2023/01/16 15:10:24;;;;;;;;;;;22.60;99.90;;;;;;5112594;28;19930;-72
2023/01/16 15:12:51;;;;;;;;;;;22.60;99.90;;;;;;5113804;28;19915;-85
2023/01/16 15:15:20;;;;;;;;;;;22.60;99.90;;;;;;5111963;28;19928;-80
2023/01/16 15:23:24;;;;;;;;;;;22.60;99.90;;;;;;5097003;28;19958;-83
2023/01/16 15:26:06;;;;;;;;;;;22.60;99.90;;;;;;5096363;28;19915;-81
2023/01/16 15:28:43;;;;;;;;;;;22.60;99.90;;;;;;5096160;28;19919;-84
2023/01/16 15:31:13;;;;;;;;;;;22.60;99.90;;;;;;5097986;28;19953;-90
2023/01/16 15:33:44;;;;;;;;;;;22.70;99.90;;;;;;5108327;28;19909;-67
2023/01/16 15:36:17;;;;;;;;;;;22.80;99.90;;;;;;5100469;28;20317;-86
2023/01/16 15:38:45;;;;;;;;;;;22.80;99.90;;;;;;5096901;28;19919;-70
2023/01/16 15:41:12;;;;;;;;;;;22.90;99.90;;;;;;5096582;28;19959;-87
2023/01/16 15:46:46;;;;;;;;;;;22.90;99.90;;;;;;5095034;28;19970;-89
2023/01/16 15:49:15;;;;;;;;;;;23.00;99.90;;;;;;5095435;28;19908;-66
2023/01/16 15:51:49;;;;;;;;;;;22.90;99.90;;;;;;5095272;28;20274;-82
2023/01/16 15:54:16;;;;;;;;;;;22.90;99.90;;;;;;5130424;27;19912;-66
2023/01/16 15:56:44;;;;;;;;;;;22.90;99.90;;;;;;5098939;28;20385;-88
2023/01/16 15:59:23;;;;;;;;;;;23.00;99.90;;;;;;5098497;28;19920;-71
2023/01/16 16:01:49;;;;;;;;;;;23.00;99.90;;;;;;5098528;28;19973;-90
2023/01/16 16:04:16;;;;;;;;;;;23.00;99.90;;;;;;5098302;28;19908;-79
2023/01/16 16:06:44;;;;;;;;;;;23.00;99.90;;;;;;5098376;28;20302;-80
2023/01/16 16:09:21;;;;;;;;;;;23.00;99.90;;;;;;5098472;28;20003;-88
2023/01/16 16:11:51;;;;;;;;;;;23.00;99.90;;;;;;5097929;28;19919;-83
2023/01/16 16:20:30;;;;;;;;;;;23.10;99.90;;;;;;5097571;28;19977;-73
2023/01/16 16:23:17;;;;;;;;;;;23.10;99.90;;;;;;5097997;28;19915;-85
2023/01/16 16:25:54;;;;;;;;;;;23.10;99.90;;;;;;5090480;28;19984;-88